Time;durP1;ratioP1;P1;durP2;ratioP2;P2;SDS_P1;SDS_P2;PMS_P1;PMS_P2;Temp;Humidity;BMP_temperature;BMP_pressure;BME280_temperature;BME280_humidity;BME280_pressure;Samples;Min_cycle;Max_cycle;Signal;HPM_P1;HPM_P2
2022/02/02 00:01:58;;;;;;;14.15;2.40;;;5.20;99.90;;;;;;5051337;28;20413;-69
2022/02/02 00:04:28;;;;;;;10.38;2.97;;;5.10;99.90;;;;;;5051068;28;20061;-68
2022/02/02 00:07:04;;;;;;;14.95;3.22;;;5.10;99.90;;;;;;5051099;28;20144;-69
2022/02/02 00:09:32;;;;;;;10.13;2.20;;;5.10;99.90;;;;;;5053483;28;20092;-69
2022/02/02 00:12:12;;;;;;;5.97;2.10;;;5.20;99.90;;;;;;5054972;28;20063;-68
2022/02/02 00:14:54;;;;;;;11.52;2.80;;;5.20;99.90;;;;;;5054651;28;20586;-68
2022/02/02 00:17:33;;;;;;;11.95;3.53;;;5.10;99.90;;;;;;5054925;28;20060;-68
2022/02/02 00:20:11;;;;;;;13.52;2.40;;;5.20;99.90;;;;;;5055096;28;20149;-68
2022/02/02 00:22:41;;;;;;;12.27;2.88;;;5.10;99.90;;;;;;5054589;28;20067;-68
2022/02/02 00:25:14;;;;;;;17.63;4.22;;;5.10;99.90;;;;;;5053972;28;20102;-68
2022/02/02 00:27:43;;;;;;;11.77;2.90;;;5.30;99.90;;;;;;5054686;28;20526;-68
2022/02/02 00:30:16;;;;;;;12.13;3.45;;;5.40;99.90;;;;;;5054356;28;20466;-69
2022/02/02 00:32:58;;;;;;;14.57;3.53;;;5.40;99.90;;;;;;5055011;28;20139;-68
2022/02/02 00:35:30;;;;;;;13.95;3.03;;;5.30;99.90;;;;;;5054471;28;20086;-68
2022/02/02 00:37:57;;;;;;;16.23;4.10;;;5.30;99.90;;;;;;5054549;28;20146;-68
2022/02/02 00:40:24;;;;;;;11.27;2.95;;;5.50;99.90;;;;;;5054600;28;20425;-68
2022/02/02 00:42:52;;;;;;;14.10;2.80;;;5.70;99.90;;;;;;5054550;28;20076;-68
2022/02/02 00:45:20;;;;;;;10.93;2.95;;;5.60;99.90;;;;;;5054127;28;20053;-69
2022/02/02 00:47:51;;;;;;;15.68;3.45;;;5.70;99.90;;;;;;5054538;28;20053;-68
2022/02/02 00:50:18;;;;;;;11.32;3.25;;;5.70;99.90;;;;;;5054057;28;20551;-68
2022/02/02 00:52:50;;;;;;;18.60;3.55;;;5.70;99.90;;;;;;5054138;28;20053;-68
2022/02/02 00:55:17;;;;;;;15.68;3.05;;;5.70;99.90;;;;;;5053952;28;20107;-67
2022/02/02 00:57:44;;;;;;;15.63;3.90;;;5.80;99.90;;;;;;5054100;28;20140;-68
2022/02/02 01:00:12;;;;;;;15.35;3.15;;;5.80;99.90;;;;;;5053979;28;20145;-67
2022/02/02 01:02:41;;;;;;;11.48;3.25;;;5.80;99.90;;;;;;5053864;28;20081;-67
2022/02/02 01:05:08;;;;;;;14.93;3.20;;;5.90;99.90;;;;;;5053618;28;20127;-67
2022/02/02 01:07:53;;;;;;;13.95;2.70;;;5.90;99.90;;;;;;5053986;28;20131;-67
2022/02/02 01:10:26;;;;;;;13.77;2.95;;;5.90;99.90;;;;;;5053727;28;20552;-67
2022/02/02 01:13:06;;;;;;;19.20;3.83;;;5.90;99.90;;;;;;5053874;28;20053;-67
2022/02/02 01:18:26;;;;;;;20.15;4.13;;;5.70;99.90;;;;;;5053564;28;20049;-67
2022/02/02 01:20:57;;;;;;;18.75;5.40;;;5.60;99.90;;;;;;5054192;28;20057;-68
2022/02/02 01:28:54;;;;;;;8.35;2.33;;;5.00;99.90;;;;;;5053584;28;20051;-69
2022/02/02 01:31:21;;;;;;;10.17;2.13;;;4.90;99.90;;;;;;5053425;28;20562;-67
2022/02/02 01:33:49;;;;;;;8.02;1.88;;;4.80;99.90;;;;;;5053195;28;20135;-68
2022/02/02 01:36:17;;;;;;;10.55;2.22;;;4.70;99.90;;;;;;5053456;28;20147;-68
2022/02/02 01:38:47;;;;;;;8.73;2.00;;;4.70;99.90;;;;;;5053289;28;20091;-68
2022/02/02 01:41:21;;;;;;;13.53;2.87;;;4.60;99.90;;;;;;5053536;28;20049;-68
2022/02/02 01:43:56;;;;;;;10.75;2.58;;;4.60;99.90;;;;;;5053370;28;20108;-68
2022/02/02 01:46:24;;;;;;;13.48;2.10;;;4.50;99.90;;;;;;5053155;28;20057;-68
2022/02/02 01:49:00;;;;;;;9.80;2.17;;;4.50;99.90;;;;;;5053336;28;20064;-70
2022/02/02 01:51:56;;;;;;;16.73;2.50;;;4.30;99.90;;;;;;5053128;28;20075;-68
2022/02/02 01:54:50;;;;;;;10.57;2.33;;;4.40;99.90;;;;;;5053159;28;20068;-68
2022/02/02 01:57:35;;;;;;;6.77;1.63;;;4.40;99.90;;;;;;5052975;28;20107;-68
2022/02/02 02:00:02;;;;;;;11.03;2.13;;;4.30;99.90;;;;;;5053079;28;20142;-68
2022/02/02 02:02:29;;;;;;;14.50;2.50;;;4.20;99.90;;;;;;5052800;28;20469;-69
2022/02/02 02:04:57;;;;;;;16.70;3.10;;;4.40;99.90;;;;;;5052507;28;20134;-68
2022/02/02 02:07:24;;;;;;;18.08;2.95;;;4.30;99.90;;;;;;5052711;28;20132;-67
2022/02/02 02:09:52;;;;;;;14.27;2.30;;;4.20;99.90;;;;;;5052610;28;20139;-68
2022/02/02 02:12:19;;;;;;;10.33;1.80;;;4.10;99.90;;;;;;5052536;28;20049;-69
2022/02/02 02:14:51;;;;;;;13.50;2.35;;;4.10;99.90;;;;;;5052287;28;20080;-69
2022/02/02 02:17:18;;;;;;;16.20;2.63;;;4.00;99.90;;;;;;5052673;28;20167;-69
2022/02/02 02:19:48;;;;;;;12.00;2.80;;;4.10;99.90;;;;;;5052699;28;20061;-68
2022/02/02 02:22:20;;;;;;;12.57;2.00;;;4.00;99.90;;;;;;5052367;28;20472;-69
2022/02/02 02:24:48;;;;;;;9.90;1.77;;;4.00;99.90;;;;;;5052278;28;20128;-69
2022/02/02 02:27:17;;;;;;;17.00;2.73;;;4.10;99.90;;;;;;5052685;28;20063;-70
2022/02/02 02:29:59;;;;;;;15.63;2.40;;;4.20;99.90;;;;;;5052371;28;20053;-71
2022/02/02 02:32:46;;;;;;;18.27;2.70;;;4.10;99.90;;;;;;5051834;28;20048;-69
2022/02/02 02:35:43;;;;;;;12.82;2.00;;;4.30;99.90;;;;;;5052644;28;20071;-69
2022/02/02 02:38:30;;;;;;;12.20;2.45;;;4.20;99.90;;;;;;5052806;28;20493;-69
2022/02/02 02:57:30;;;;;;;12.13;2.95;;;4.40;99.90;;;;;;5052442;28;20072;-69
2022/02/02 03:00:21;;;;;;;20.90;2.80;;;4.40;99.90;;;;;;5052253;28;20060;-69
2022/02/02 03:13:43;;;;;;;15.60;3.33;;;4.40;99.90;;;;;;5051863;28;20580;-69
2022/02/02 03:30:46;;;;;;;16.38;3.10;;;4.90;99.90;;;;;;5052090;28;20048;-69
2022/02/02 03:55:29;;;;;;;16.85;4.22;;;5.10;99.90;;;;;;5045177;28;20106;-68
2022/02/02 03:58:13;;;;;;;19.48;4.47;;;5.10;99.90;;;;;;5055377;28;20087;-68
2022/02/02 04:01:09;;;;;;;27.50;4.30;;;5.10;99.90;;;;;;5055437;28;20087;-69
2022/02/02 04:03:45;;;;;;;16.33;3.45;;;5.20;99.90;;;;;;5054905;28;20056;-68
2022/02/02 04:06:19;;;;;;;20.15;3.72;;;5.20;99.90;;;;;;5054586;28;20057;-70
2022/02/02 04:08:46;;;;;;;23.88;4.05;;;5.20;99.90;;;;;;5055009;28;20049;-68
2022/02/02 04:11:16;;;;;;;23.40;3.80;;;5.20;99.90;;;;;;5055236;28;20130;-68
2022/02/02 04:52:55;;;;;;;25.73;4.20;;;5.00;99.90;;;;;;5054399;28;20060;-67
2022/02/02 04:55:32;;;;;;;16.23;3.40;;;5.00;99.90;;;;;;5053363;28;20056;-69
2022/02/02 04:58:14;;;;;;;26.92;4.93;;;5.10;99.90;;;;;;5054287;28;20049;-68
2022/02/02 05:01:43;;;;;;;21.63;3.53;;;5.00;99.90;;;;;;5054797;28;20079;-68
2022/02/02 05:04:12;;;;;;;27.35;4.55;;;5.10;99.90;;;;;;5053877;28;20049;-69
2022/02/02 05:06:45;;;;;;;27.35;5.13;;;5.00;99.90;;;;;;5054416;28;20060;-68
2022/02/02 05:09:25;;;;;;;27.88;3.72;;;5.00;99.90;;;;;;5054015;28;20087;-68
2022/02/02 05:51:19;;;;;;;13.43;3.10;;;5.50;99.90;;;;;;5088806;28;20129;-69
2022/02/02 05:53:48;;;;;;;20.48;3.53;;;5.40;99.90;;;;;;5088601;28;20067;-70
2022/02/02 05:56:15;;;;;;;18.85;3.03;;;5.40;99.90;;;;;;5088272;28;20139;-70
2022/02/02 05:58:45;;;;;;;15.35;2.65;;;5.40;99.90;;;;;;5088232;28;20714;-70
2022/02/02 06:01:13;;;;;;;16.98;2.92;;;5.60;99.90;;;;;;5088452;28;20079;-70
2022/02/02 06:03:49;;;;;;;17.48;3.40;;;5.60;99.90;;;;;;5089707;28;20075;-70
2022/02/02 06:06:17;;;;;;;20.15;3.70;;;5.40;99.90;;;;;;5088145;28;20143;-70
2022/02/02 06:08:45;;;;;;;13.88;2.65;;;5.40;99.90;;;;;;5088607;28;20048;-70
2022/02/02 06:11:16;;;;;;;23.08;3.00;;;5.30;99.90;;;;;;5088352;28;20076;-71
2022/02/02 06:13:46;;;;;;;14.80;3.60;;;5.30;99.90;;;;;;5088549;28;20074;-71
2022/02/02 06:16:14;;;;;;;11.43;3.13;;;5.30;99.90;;;;;;5088047;28;20109;-69
2022/02/02 06:18:43;;;;;;;22.35;3.72;;;5.40;99.90;;;;;;5088285;28;20066;-70
2022/02/02 06:21:10;;;;;;;18.25;3.20;;;5.20;99.90;;;;;;5088370;28;20059;-70
2022/02/02 06:23:39;;;;;;;16.90;2.83;;;5.10;99.90;;;;;;5087777;28;20139;-70
2022/02/02 06:26:13;;;;;;;18.67;3.65;;;5.00;99.90;;;;;;5088186;28;20084;-69
2022/02/02 06:28:43;;;;;;;19.33;4.10;;;5.00;99.90;;;;;;5089243;28;20083;-68
2022/02/02 06:31:13;;;;;;;20.40;3.75;;;5.10;99.90;;;;;;5079818;28;20132;-68
2022/02/02 06:33:42;;;;;;;13.63;3.40;;;5.10;99.90;;;;;;5074921;28;20045;-69
2022/02/02 06:36:10;;;;;;;15.85;2.88;;;5.30;99.90;;;;;;5074034;28;20044;-70
2022/02/02 06:38:39;;;;;;;17.10;3.17;;;5.30;99.90;;;;;;5074197;28;20084;-69
2022/02/02 06:41:08;;;;;;;15.68;3.13;;;5.30;99.90;;;;;;5074405;28;20045;-70
2022/02/02 06:43:36;;;;;;;14.15;2.65;;;5.40;99.90;;;;;;5074210;28;20052;-69
2022/02/02 06:46:04;;;;;;;13.20;2.55;;;5.50;99.90;;;;;;5073892;28;20472;-70
2022/02/02 06:48:33;;;;;;;20.00;3.55;;;5.50;99.90;;;;;;5074004;28;20555;-70
2022/02/02 06:51:09;;;;;;;17.33;3.13;;;5.50;99.90;;;;;;5074202;28;20060;-70
2022/02/02 06:53:46;;;;;;;16.15;2.90;;;5.60;99.90;;;;;;5073991;28;20048;-69
2022/02/02 06:56:32;;;;;;;15.73;3.20;;;5.70;99.90;;;;;;5074013;28;20056;-70
2022/02/02 06:59:16;;;;;;;13.88;2.78;;;5.70;99.90;;;;;;5073995;28;20045;-72
2022/02/02 07:01:55;;;;;;;18.80;2.88;;;5.70;99.90;;;;;;5074129;28;20067;-70
2022/02/02 07:04:50;;;;;;;15.38;2.80;;;5.70;99.90;;;;;;5073806;28;20463;-70
2022/02/02 07:07:35;;;;;;;10.13;2.35;;;5.70;99.90;;;;;;5073653;28;20064;-72
2022/02/02 07:10:14;;;;;;;15.77;2.70;;;5.80;99.90;;;;;;5075824;28;20056;-71
2022/02/02 07:13:01;;;;;;;19.42;2.67;;;5.80;99.90;;;;;;5073842;28;20056;-70
2022/02/02 07:15:45;;;;;;;17.40;2.75;;;5.80;99.90;;;;;;5073314;28;20063;-71
2022/02/02 07:18:23;;;;;;;21.17;3.22;;;5.90;99.90;;;;;;5073879;28;20483;-71
2022/02/02 07:20:59;;;;;;;12.50;2.40;;;5.90;99.90;;;;;;5073443;28;20060;-70
2022/02/02 07:23:45;;;;;;;12.70;2.38;;;5.80;99.90;;;;;;5073380;28;20501;-70
2022/02/02 07:29:05;;;;;;;15.88;3.38;;;5.70;99.90;;;;;;5073483;28;20040;-70
2022/02/02 07:31:44;;;;;;;12.07;2.28;;;5.70;99.90;;;;;;5073509;28;20053;-71
2022/02/02 07:34:20;;;;;;;14.30;2.85;;;5.80;99.90;;;;;;5073048;28;20485;-71
2022/02/02 07:36:53;;;;;;;14.53;3.83;;;5.90;99.90;;;;;;5073363;28;20060;-71
2022/02/02 07:39:21;;;;;;;14.07;2.63;;;5.90;99.90;;;;;;5073387;28;20356;-71
2022/02/02 07:41:48;;;;;;;9.57;2.35;;;5.90;99.90;;;;;;5072579;28;20147;-70
2022/02/02 07:44:19;;;;;;;11.73;2.30;;;5.90;99.90;;;;;;5072650;28;20095;-71
2022/02/02 07:46:52;;;;;;;12.88;2.80;;;5.90;99.90;;;;;;5072772;28;20063;-72
2022/02/02 07:49:28;;;;;;;15.88;3.10;;;6.00;99.90;;;;;;5073102;28;20570;-71
2022/02/02 07:51:56;;;;;;;11.95;2.72;;;6.00;99.90;;;;;;5073092;28;20420;-71
2022/02/02 07:54:29;;;;;;;10.20;2.35;;;6.00;99.90;;;;;;5072915;28;20090;-72
2022/02/02 07:56:58;;;;;;;14.82;2.15;;;6.10;99.90;;;;;;5072764;28;20110;-70
2022/02/02 07:59:34;;;;;;;12.70;2.63;;;6.00;99.90;;;;;;5072581;28;20413;-70
2022/02/02 08:02:04;;;;;;;14.27;2.38;;;6.00;99.90;;;;;;5073014;28;20143;-71
2022/02/02 08:04:32;;;;;;;13.38;2.38;;;6.10;99.90;;;;;;5072869;28;20059;-71
2022/02/02 08:06:59;;;;;;;19.02;2.70;;;6.20;99.90;;;;;;5072578;28;20063;-70
2022/02/02 08:09:34;;;;;;;16.75;2.33;;;6.20;99.90;;;;;;5072520;28;20133;-70
2022/02/02 08:12:02;;;;;;;13.90;2.70;;;6.20;99.90;;;;;;5072527;28;20477;-69
2022/02/02 08:14:31;;;;;;;16.80;2.67;;;6.20;99.90;;;;;;5072722;28;20049;-70
2022/02/02 08:16:58;;;;;;;14.68;3.90;;;6.20;99.90;;;;;;5072392;28;20056;-70
2022/02/02 08:19:27;;;;;;;16.10;2.38;;;6.20;99.90;;;;;;5072182;28;20135;-69
2022/02/02 08:21:54;;;;;;;16.77;2.22;;;6.10;99.90;;;;;;5072450;28;20084;-70
2022/02/02 08:24:22;;;;;;;17.08;2.38;;;6.10;99.90;;;;;;5072233;28;20140;-70
2022/02/02 08:26:49;;;;;;;13.73;2.90;;;6.00;99.90;;;;;;5072317;28;20056;-70
2022/02/02 08:29:17;;;;;;;13.15;2.85;;;6.10;99.90;;;;;;5072017;28;20088;-70
2022/02/02 08:31:44;;;;;;;10.60;3.42;;;6.10;99.90;;;;;;5072155;28;20127;-70
2022/02/02 08:34:11;;;;;;;24.20;3.20;;;6.10;99.90;;;;;;5071955;28;20087;-70
2022/02/02 08:36:41;;;;;;;17.05;3.33;;;6.10;99.90;;;;;;5071847;28;20056;-70
2022/02/02 08:39:22;;;;;;;15.93;3.28;;;6.10;99.90;;;;;;5072056;28;20451;-70
2022/02/02 08:41:52;;;;;;;23.80;3.10;;;6.10;99.90;;;;;;5072217;28;20068;-70
2022/02/02 08:44:23;;;;;;;13.60;3.35;;;6.10;99.90;;;;;;5072035;28;20048;-70
2022/02/02 08:46:58;;;;;;;15.85;5.13;;;6.20;99.90;;;;;;5071818;28;20056;-70
2022/02/02 08:49:25;;;;;;;15.77;3.25;;;6.20;99.90;;;;;;5071643;28;20056;-70
2022/02/02 08:51:53;;;;;;;23.05;2.97;;;6.20;99.90;;;;;;5072080;28;20102;-70
2022/02/02 08:54:29;;;;;;;24.15;3.63;;;6.30;99.90;;;;;;5071712;28;20084;-70
2022/02/02 08:59:47;;;;;;;16.95;3.50;;;6.40;99.90;;;;;;5068670;28;20055;-70
2022/02/02 09:02:19;;;;;;;18.65;3.72;;;6.50;99.90;;;;;;5071597;28;20079;-70
2022/02/02 09:07:32;;;;;;;25.23;3.60;;;7.00;99.90;;;;;;5071659;28;20567;-70
2022/02/02 09:10:03;;;;;;;18.50;3.13;;;7.30;99.90;;;;;;5071501;28;20481;-69
2022/02/02 09:23:31;;;;;;;19.23;3.50;;;13.40;99.90;;;;;;5040180;28;20048;-70
2022/02/02 09:26:23;;;;;;;20.55;3.10;;;13.80;99.90;;;;;;5070915;28;20052;-70
2022/02/02 09:31:47;;;;;;;17.42;2.85;;;10.30;99.90;;;;;;5071538;28;20052;-70
2022/02/02 09:34:16;;;;;;;14.38;2.90;;;8.90;99.90;;;;;;5071475;28;20102;-70
2022/02/02 09:36:45;;;;;;;15.35;2.90;;;8.40;99.90;;;;;;5071172;28;20060;-70
2022/02/02 09:39:19;;;;;;;15.65;3.00;;;8.20;99.90;;;;;;5071236;28;20497;-70
2022/02/02 09:41:49;;;;;;;14.00;3.28;;;7.70;99.90;;;;;;5071140;28;20052;-70
2022/02/02 09:44:20;;;;;;;13.55;3.17;;;7.50;99.90;;;;;;5071256;28;20059;-70
2022/02/02 09:46:58;;;;;;;11.57;2.58;;;8.10;99.90;;;;;;5071126;28;20094;-69
2022/02/02 09:49:31;;;;;;;12.32;2.75;;;7.80;99.90;;;;;;5071269;28;20056;-70
2022/02/02 09:52:02;;;;;;;13.55;2.80;;;7.50;99.90;;;;;;5071670;28;20063;-70
2022/02/02 09:54:37;;;;;;;11.63;3.15;;;7.50;99.90;;;;;;5071294;28;20056;-70
2022/02/02 10:03:00;;;;;;;13.93;2.38;;;10.50;99.90;;;;;;5049831;28;20052;-69
2022/02/02 10:05:30;;;;;;;10.88;2.42;;;8.40;99.90;;;;;;5071358;28;20151;-69
2022/02/02 10:11:48;;;;;;;13.25;2.30;;;8.00;99.90;;;;;;5074525;28;20497;-70
2022/02/02 10:14:30;;;;;;;14.55;2.92;;;8.00;99.90;;;;;;5074326;28;20055;-69
2022/02/02 10:16:58;;;;;;;14.35;2.67;;;8.10;99.90;;;;;;5074507;28;20071;-70
2022/02/02 10:19:26;;;;;;;13.63;2.40;;;8.00;99.90;;;;;;5074272;28;20058;-70
2022/02/02 10:21:55;;;;;;;8.27;2.03;;;8.10;99.90;;;;;;5074646;28;20127;-70
2022/02/02 10:24:43;;;;;;;15.90;2.30;;;7.90;99.90;;;;;;5074505;28;20268;-70
2022/02/02 10:27:22;;;;;;;11.20;2.03;;;7.70;99.90;;;;;;5074197;28;20591;-70
2022/02/02 10:29:50;;;;;;;11.60;2.33;;;7.60;99.90;;;;;;5074360;28;20048;-70
2022/02/02 10:32:39;;;;;;;12.80;2.40;;;7.50;99.90;;;;;;5074362;28;20144;-69
2022/02/02 10:35:07;;;;;;;9.05;1.45;;;7.70;99.90;;;;;;5073761;28;20063;-69
2022/02/02 10:37:37;;;;;;;12.75;2.25;;;7.60;99.90;;;;;;5074122;28;20040;-70
2022/02/02 10:40:06;;;;;;;13.82;2.25;;;12.20;99.90;;;;;;5073923;28;20063;-69
2022/02/02 10:42:40;;;;;;;10.38;3.15;;;17.80;99.90;;;;;;5074101;28;20056;-70
2022/02/02 10:45:23;;;;;;;16.60;2.67;;;14.50;99.90;;;;;;5074199;28;20053;-70
2022/02/02 10:47:58;;;;;;;12.43;2.15;;;16.20;99.90;;;;;;5072711;28;20053;-70
2022/02/02 10:50:32;;;;;;;8.43;2.17;;;14.90;99.90;;;;;;5074188;28;20137;-70
2022/02/02 10:53:27;;;;;;;11.65;2.67;;;13.30;99.90;;;;;;5074035;28;20152;-70
2022/02/02 10:56:16;;;;;;;8.10;1.90;;;15.10;99.90;;;;;;5073789;28;20458;-70
2022/02/02 11:01:41;;;;;;;9.02;1.88;;;13.10;99.90;;;;;;5057688;28;20051;-69
2022/02/02 11:06:54;;;;;;;7.25;1.67;;;10.50;99.90;;;;;;5073238;28;20444;-69
2022/02/02 11:09:21;;;;;;;13.10;2.25;;;10.40;99.90;;;;;;5073541;28;20107;-70
2022/02/02 11:11:50;;;;;;;8.32;2.58;;;12.50;99.90;;;;;;5073578;28;20076;-69
2022/02/02 11:14:48;;;;;;;11.88;1.80;;;13.30;99.90;;;;;;5073297;28;20076;-69
2022/02/02 11:17:23;;;;;;;9.82;2.35;;;11.60;99.90;;;;;;5038902;28;20052;-70
2022/02/02 11:19:53;;;;;;;8.90;1.70;;;10.30;99.90;;;;;;5073517;28;20109;-69
2022/02/02 11:22:31;;;;;;;14.45;2.10;;;9.40;99.90;;;;;;5073344;28;20124;-70
2022/02/02 11:25:33;;;;;;;12.80;2.28;;;9.40;99.90;;;;;;5072825;28;20393;-71
2022/02/02 11:28:02;;;;;;;10.82;1.90;;;10.70;99.90;;;;;;5073446;28;20085;-70
2022/02/02 11:30:42;;;;;;;10.23;1.98;;;11.30;99.90;;;;;;5073255;28;20817;-71
2022/02/02 11:33:22;;;;;;;8.73;1.70;;;10.50;99.90;;;;;;5073191;28;20107;-71
2022/02/02 11:35:51;;;;;;;10.40;1.50;;;10.90;99.90;;;;;;5072846;28;20135;-71
2022/02/02 11:38:36;;;;;;;6.10;1.50;;;14.40;99.90;;;;;;5073049;28;20060;-71
2022/02/02 11:41:19;;;;;;;9.63;1.85;;;10.70;99.90;;;;;;5072986;28;20102;-71
2022/02/02 11:43:53;;;;;;;13.65;2.38;;;11.10;99.90;;;;;;5073069;28;20060;-71
2022/02/02 11:46:41;;;;;;;9.57;1.77;;;10.30;99.90;;;;;;5072783;28;20544;-70
2022/02/02 11:49:14;;;;;;;10.52;1.65;;;10.50;99.90;;;;;;5072675;28;20513;-70
2022/02/02 11:51:43;;;;;;;10.20;1.75;;;12.40;99.90;;;;;;5072620;28;20053;-71
2022/02/02 11:54:11;;;;;;;8.50;2.38;;;13.00;99.90;;;;;;5072721;28;20056;-71
2022/02/02 11:57:26;;;;;;;11.43;2.50;;;11.30;99.90;;;;;;5073010;28;20052;-71
2022/02/02 11:59:59;;;;;;;9.43;1.80;;;10.00;99.90;;;;;;5071338;28;20056;-71
2022/02/02 12:02:51;;;;;;;9.52;2.35;;;9.60;99.90;;;;;;5072405;28;20044;-71
2022/02/02 12:05:35;;;;;;;14.13;2.67;;;9.40;99.90;;;;;;5071937;28;20053;-71
2022/02/02 12:08:24;;;;;;;16.85;2.88;;;9.30;99.90;;;;;;5072568;28;20078;-71
2022/02/02 12:11:15;;;;;;;9.00;1.77;;;9.70;99.90;;;;;;5072257;28;20385;-72
2022/02/02 12:20:13;;;;;;;11.18;2.15;;;8.90;99.90;;;;;;5072221;28;20384;-70
2022/02/02 12:35:56;;;;;;;13.05;2.10;;;9.40;99.90;;;;;;5071788;28;20194;-71
2022/02/02 12:47:50;;;;;;;8.38;2.08;;;10.00;99.90;;;;;;5071850;28;20462;-70
2022/02/02 12:56:24;;;;;;;11.50;1.73;;;8.60;99.90;;;;;;5071506;28;20436;-70
2022/02/02 12:58:51;;;;;;;13.63;1.90;;;9.80;99.90;;;;;;5071759;28;20421;-70
2022/02/02 13:01:21;;;;;;;9.57;1.63;;;9.40;99.90;;;;;;5071391;28;20558;-71
2022/02/02 13:03:49;;;;;;;11.02;1.90;;;11.70;99.90;;;;;;5071527;28;20051;-70
2022/02/02 13:06:18;;;;;;;6.07;1.60;;;11.00;99.90;;;;;;5071361;28;20091;-70
2022/02/02 13:08:51;;;;;;;8.63;1.63;;;11.40;99.90;;;;;;5071414;28;20056;-71
2022/02/02 13:11:29;;;;;;;20.13;2.20;;;10.60;99.90;;;;;;5071733;28;20063;-70
2022/02/02 13:14:00;;;;;;;9.27;1.65;;;11.60;99.90;;;;;;5071316;28;20052;-71
2022/02/02 13:16:28;;;;;;;8.23;1.38;;;10.10;99.90;;;;;;5071617;28;20184;-71
2022/02/02 13:19:01;;;;;;;8.98;1.55;;;9.30;99.90;;;;;;5071650;28;20060;-71
2022/02/02 13:21:31;;;;;;;9.10;1.80;;;9.70;99.90;;;;;;5071448;28;20045;-70
2022/02/02 13:24:08;;;;;;;11.88;1.73;;;10.60;99.90;;;;;;5071253;28;20699;-70
2022/02/02 13:26:42;;;;;;;12.15;2.20;;;10.40;99.90;;;;;;5071286;28;20062;-71
2022/02/02 13:29:17;;;;;;;13.07;1.65;;;9.90;99.90;;;;;;5071548;28;20060;-70
2022/02/02 13:31:54;;;;;;;7.95;1.52;;;9.50;99.90;;;;;;5071360;28;20090;-70
2022/02/02 13:34:34;;;;;;;7.85;1.70;;;9.40;99.90;;;;;;5071429;28;20121;-70
2022/02/02 13:43:06;;;;;;;10.43;2.10;;;8.70;99.90;;;;;;5075353;28;20501;-71
2022/02/02 13:45:51;;;;;;;6.55;1.45;;;9.00;99.90;;;;;;5075315;28;20056;-70
2022/02/02 13:51:14;;;;;;;7.53;1.80;;;9.70;99.90;;;;;;5075103;28;20036;-70
2022/02/02 13:54:01;;;;;;;7.20;1.83;;;9.10;99.90;;;;;;5075262;28;20059;-70
2022/02/02 14:00:08;;;;;;;8.85;1.42;;;8.80;99.90;;;;;;5075006;28;20416;-70
2022/02/02 14:11:41;;;;;;;11.23;2.95;;;8.80;99.90;;;;;;5058644;28;20513;-71
2022/02/02 14:33:24;;;;;;;9.20;1.83;;;8.40;99.90;;;;;;5074155;28;20137;-71
2022/02/02 14:35:55;;;;;;;9.27;1.50;;;8.40;99.90;;;;;;5073996;28;20136;-71
2022/02/02 14:38:22;;;;;;;7.20;1.17;;;8.40;99.90;;;;;;5074332;28;20147;-71
2022/02/02 14:41:00;;;;;;;10.45;2.00;;;8.50;99.90;;;;;;5074000;28;20049;-70
2022/02/02 14:43:33;;;;;;;9.27;1.77;;;8.40;99.90;;;;;;5073962;28;20109;-70
2022/02/02 14:46:04;;;;;;;6.25;1.30;;;8.40;99.90;;;;;;5074004;28;20113;-71
2022/02/02 14:48:34;;;;;;;12.88;1.98;;;8.40;99.90;;;;;;5074062;28;20143;-71
2022/02/02 14:51:08;;;;;;;7.38;1.65;;;8.40;99.90;;;;;;5073480;28;20049;-71
2022/02/02 14:53:43;;;;;;;7.45;1.95;;;8.30;99.90;;;;;;5073900;28;20110;-71
2022/02/02 15:24:26;;;;;;;5.45;1.48;;;7.90;99.90;;;;;;5073108;28;20085;-71
2022/02/02 15:29:56;;;;;;;9.68;1.80;;;7.90;99.90;;;;;;5036442;28;20123;-71
2022/02/02 15:32:24;;;;;;;10.60;1.80;;;7.90;99.90;;;;;;5073094;28;20500;-70
2022/02/02 15:34:56;;;;;;;9.13;1.70;;;7.90;99.90;;;;;;5072640;28;20053;-70
2022/02/02 15:37:27;;;;;;;6.90;1.30;;;7.90;99.90;;;;;;5072907;28;20512;-70
2022/02/02 15:40:02;;;;;;;10.50;1.42;;;7.80;99.90;;;;;;5072804;28;20048;-71
2022/02/02 15:58:54;;;;;;;6.35;1.75;;;7.10;99.90;;;;;;5072379;28;20044;-70
2022/02/02 16:04:14;;;;;;;12.32;1.98;;;7.00;99.90;;;;;;5071398;28;20037;-71
2022/02/02 16:06:42;;;;;;;6.00;1.80;;;6.90;99.90;;;;;;5071924;28;20078;-71
2022/02/02 16:09:21;;;;;;;9.27;1.98;;;7.00;99.90;;;;;;5084605;22;20130;-70
2022/02/02 16:12:03;;;;;;;9.80;1.98;;;7.00;99.90;;;;;;5052552;28;20143;-70
2022/02/02 16:14:33;;;;;;;14.98;2.67;;;7.00;99.90;;;;;;5052620;28;20174;-70
2022/02/02 16:17:15;;;;;;;9.77;1.92;;;6.90;99.90;;;;;;5052478;28;20103;-70
2022/02/02 16:24:43;;;;;;;8.23;1.40;;;6.80;99.90;;;;;;5052443;28;20063;-70
2022/02/02 16:25:34;;;;;;;10.23;1.63;;;6.70;99.90;;;;;;5052101;28;20179;-70
2022/02/02 16:36:17;;;;;;;9.10;1.88;;;6.50;99.90;;;;;;5051778;28;20041;-70
2022/02/02 16:38:57;;;;;;;12.68;2.60;;;6.50;99.90;;;;;;5052188;28;20049;-70
2022/02/02 16:44:08;;;;;;;10.93;3.45;;;6.60;99.90;;;;;;5051867;28;20059;-70
2022/02/02 16:46:35;;;;;;;9.45;2.83;;;6.50;99.90;;;;;;5051669;28;20092;-70
2022/02/02 16:49:02;;;;;;;14.07;2.58;;;6.50;99.90;;;;;;5051922;28;20088;-70
2022/02/02 16:51:29;;;;;;;9.27;2.30;;;6.40;99.90;;;;;;5051901;28;20048;-70
2022/02/02 16:54:00;;;;;;;12.35;2.60;;;6.30;99.90;;;;;;5051901;28;20057;-70
2022/02/02 16:56:38;;;;;;;13.02;2.83;;;6.30;99.90;;;;;;5051867;28;20060;-70
2022/02/02 17:24:28;;;;;;;13.48;2.97;;;5.90;99.90;;;;;;5051428;28;20551;-70
2022/02/02 17:32:38;;;;;;;13.65;2.85;;;5.90;99.90;;;;;;5051460;28;20037;-70
2022/02/02 17:35:22;;;;;;;11.48;2.47;;;6.00;99.90;;;;;;5051437;28;20465;-70
2022/02/02 17:37:57;;;;;;;16.55;3.30;;;6.00;99.90;;;;;;5051575;28;20142;-70
2022/02/02 17:40:37;;;;;;;11.40;2.83;;;6.00;99.90;;;;;;5051360;28;20143;-70
2022/02/02 17:43:38;;;;;;;13.80;3.30;;;6.00;99.90;;;;;;5051290;28;20053;-70
2022/02/02 18:19:47;;;;;;;10.20;2.90;;;5.40;99.90;;;;;;5050482;28;20049;-69
2022/02/02 18:22:15;;;;;;;13.50;3.28;;;5.30;99.90;;;;;;5050928;28;20049;-69
2022/02/02 18:24:53;;;;;;;13.88;3.13;;;5.30;99.90;;;;;;5051231;28;20091;-69
2022/02/02 18:27:27;;;;;;;12.23;3.08;;;5.30;99.90;;;;;;5053341;28;20056;-69
2022/02/02 18:30:04;;;;;;;11.63;3.30;;;5.30;99.90;;;;;;5054828;28;20455;-69
2022/02/02 18:32:44;;;;;;;14.43;3.35;;;5.10;99.90;;;;;;5054807;28;20052;-69
2022/02/02 18:35:15;;;;;;;12.07;3.25;;;5.10;99.90;;;;;;5054428;28;20501;-69
2022/02/02 18:46:28;;;;;;;11.43;2.85;;;4.90;99.90;;;;;;5054572;28;20056;-69
2022/02/02 18:49:02;;;;;;;13.93;3.10;;;4.90;99.90;;;;;;5055056;28;20060;-69
2022/02/02 18:54:26;;;;;;;14.43;3.30;;;5.00;99.90;;;;;;5053984;28;20175;-69
2022/02/02 18:57:11;;;;;;;15.52;3.55;;;5.00;99.90;;;;;;5054209;28;20061;-69
2022/02/02 19:00:05;;;;;;;19.17;3.75;;;5.10;99.90;;;;;;5053913;28;20049;-69
2022/02/02 19:05:31;;;;;;;13.07;3.42;;;5.00;99.90;;;;;;5020318;28;20048;-69
2022/02/02 19:08:12;;;;;;;18.38;4.07;;;5.00;99.90;;;;;;5054215;28;20152;-69
2022/02/02 19:52:31;;;;;;;15.45;4.30;;;4.90;99.90;;;;;;5053829;28;20095;-69
2022/02/02 20:03:52;;;;;;;13.70;3.85;;;4.90;99.90;;;;;;5052898;28;20052;-69
2022/02/02 20:06:38;;;;;;;9.63;3.15;;;4.80;99.90;;;;;;5052487;28;20063;-68
2022/02/02 20:09:24;;;;;;;13.57;3.65;;;4.70;99.90;;;;;;5052990;28;20060;-69
2022/02/02 20:11:52;;;;;;;17.00;2.80;;;4.70;99.90;;;;;;5053043;28;20053;-68
2022/02/02 20:14:20;;;;;;;13.02;3.00;;;4.70;99.90;;;;;;5052582;28;20088;-69
2022/02/02 20:16:47;;;;;;;14.43;3.88;;;4.60;99.90;;;;;;5052433;28;20131;-69
2022/02/02 20:19:15;;;;;;;22.48;4.85;;;4.60;99.90;;;;;;5052802;28;20049;-68
2022/02/02 20:21:48;;;;;;;15.20;4.20;;;4.70;99.90;;;;;;5052469;28;20057;-69
2022/02/02 20:24:15;;;;;;;15.65;3.45;;;4.70;99.90;;;;;;5052229;28;20098;-69
2022/02/02 20:26:47;;;;;;;14.77;4.00;;;4.90;99.90;;;;;;5052339;28;20471;-68
2022/02/02 20:29:18;;;;;;;11.73;3.72;;;4.80;99.90;;;;;;5052896;28;20052;-68
2022/02/02 20:31:45;;;;;;;17.73;4.38;;;4.60;99.90;;;;;;5052062;28;20052;-68
2022/02/02 20:34:13;;;;;;;16.67;4.90;;;4.50;99.90;;;;;;5052158;28;20137;-69
2022/02/02 20:36:40;;;;;;;16.13;4.13;;;4.40;99.90;;;;;;5053070;28;20132;-68
2022/02/02 20:39:17;;;;;;;16.48;5.38;;;4.20;99.90;;;;;;5075799;28;20267;-69
2022/02/02 20:41:44;;;;;;;;;;;4.10;99.90;;;;;;5076076;28;20049;-69
2022/02/02 20:44:19;;;;;;;15.93;5.53;;;4.10;99.90;;;;;;5066932;28;20351;-68
2022/02/02 21:00:13;;;;;;;14.50;4.47;;;4.00;99.90;;;;;;5052305;28;20160;-68
2022/02/02 21:01:48;;;;;;;22.58;7.45;;;4.00;99.90;;;;;;5051647;28;20056;-69
2022/02/02 21:06:59;;;;;;;17.33;5.77;;;3.90;99.90;;;;;;5050687;28;20096;-68
2022/02/02 21:09:42;;;;;;;23.10;5.97;;;3.70;99.90;;;;;;5051821;28;20166;-69
2022/02/02 21:14:59;;;;;;;14.27;5.10;;;3.60;99.90;;;;;;5051880;28;20052;-68
2022/02/02 21:17:32;;;;;;;17.20;5.70;;;3.50;99.90;;;;;;5051984;28;20052;-69
2022/02/02 21:20:10;;;;;;;11.57;4.83;;;3.40;99.90;;;;;;5051810;28;20143;-69